Time,TemperatureF,DewpointF,PressureIn,WindDirection,WindDirectionDegrees,WindSpeedMPH,WindSpeedGustMPH,Humidity,HourlyPrecipIn,Conditions,Clouds,dailyrainin,SoftwareType,DateUTC
2013-01-20 00:01:00,37.6,22.5,29.72,West,263,5.4,15.7,54,0.00,,,0.00,VWS V14.01,2013-01-20 05:01:00,
2013-01-20 00:03:00,37.6,22.5,29.72,West,276,8.1,15.7,54,0.00,,,0.00,VWS V14.01,2013-01-20 05:03:00,
2013-01-20 00:05:00,37.6,22.5,29.72,WSW,241,12.1,20.1,54,0.00,,,0.00,VWS V14.01,2013-01-20 05:05:00,
2013-01-20 00:08:00,37.8,22.6,29.72,WSW,242,16.4,27.4,54,0.00,,,0.00,VWS V14.01,2013-01-20 05:08:00,
2013-01-20 00:14:00,37.9,21.4,29.72,SW,236,13.1,21.8,51,0.00,,,0.00,VWS V14.01,2013-01-20 05:14:00,
2013-01-20 00:20:00,37.6,20.2,29.72,WSW,244,9.4,25.2,49,0.00,,,0.00,VWS V14.01,2013-01-20 05:20:00,
2013-01-20 00:26:00,37.4,19.0,29.72,WNW,293,8.1,26.3,47,0.00,,,0.00,VWS V14.01,2013-01-20 05:26:00,
2013-01-20 00:31:00,37.0,17.7,29.72,WSW,253,6.0,19.0,45,0.00,,,0.00,VWS V14.01,2013-01-20 05:31:00,
2013-01-20 00:36:00,36.9,17.5,29.72,West,261,16.4,27.4,45,0.00,,,0.00,VWS V14.01,2013-01-20 05:36:00,
2013-01-20 00:42:00,36.0,15.6,29.75,WNW,292,8.7,14.5,43,0.00,,,0.00,VWS V14.01,2013-01-20 05:42:00,
2013-01-20 00:47:00,35.6,14.8,29.75,WNW,293,12.1,25.2,42,0.00,,,0.00,VWS V14.01,2013-01-20 05:47:00,
2013-01-20 00:53:00,34.7,14.0,29.75,WNW,297,11.4,19.0,42,0.00,,,0.00,VWS V14.01,2013-01-20 05:53:00,
2013-01-20 00:59:00,33.8,13.1,29.75,NW,307,12.1,20.7,42,0.00,,,0.00,VWS V14.01,2013-01-20 05:59:00,
2013-01-20 01:04:00,33.3,13.7,29.75,WSW,257,6.0,19.0,44,0.00,,,0.00,VWS V14.01,2013-01-20 06:04:00,
2013-01-20 01:10:00,32.7,13.2,29.78,West,276,16.4,27.4,44,0.00,,,0.00,VWS V14.01,2013-01-20 06:10:00,
2013-01-20 01:16:00,32.0,12.6,29.78,WSW,253,12.1,20.1,44,0.00,,,0.00,VWS V14.01,2013-01-20 06:16:00,
2013-01-20 01:21:00,31.3,11.9,29.78,WNW,283,9.4,27.4,44,0.00,,,0.00,VWS V14.01,2013-01-20 06:21:00,
2013-01-20 01:26:00,30.9,11.6,29.80,WSW,241,6.0,24.0,44,0.00,,,0.00,VWS V14.01,2013-01-20 06:26:00,
2013-01-20 01:32:00,30.9,12.1,29.80,West,269,8.1,19.0,45,0.00,,,0.00,VWS V14.01,2013-01-20 06:32:00,
2013-01-20 01:37:00,30.7,11.9,29.80,WNW,286,12.4,25.2,45,0.00,,,0.00,VWS V14.01,2013-01-20 06:37:00,
2013-01-20 01:43:00,30.2,11.9,29.80,WNW,293,15.8,26.3,46,0.00,,,0.00,VWS V14.01,2013-01-20 06:43:00,
2013-01-20 01:48:00,29.5,11.3,29.80,WNW,301,11.4,27.4,46,0.00,,,0.00,VWS V14.01,2013-01-20 06:48:00,
2013-01-20 01:53:00,29.1,10.4,29.83,NW,315,8.7,26.3,45,0.00,,,0.00,VWS V14.01,2013-01-20 06:53:00,
2013-01-20 01:58:00,28.6,9.9,29.83,WNW,299,16.4,27.4,45,0.00,,,0.00,VWS V14.01,2013-01-20 06:58:00,
2013-01-20 02:03:00,28.0,8.9,29.83,WNW,285,15.8,27.4,44,0.00,,,0.00,VWS V14.01,2013-01-20 07:03:00,
2013-01-20 02:09:00,27.9,8.8,29.86,WNW,286,11.4,37.5,44,0.00,,,0.00,VWS V14.01,2013-01-20 07:09:00,
2013-01-20 02:14:00,27.3,8.3,29.86,West,271,12.1,27.4,44,0.00,,,0.00,VWS V14.01,2013-01-20 07:14:00,
2013-01-20 02:20:00,27.1,8.1,29.86,NW,306,12.4,27.4,44,0.00,,,0.00,VWS V14.01,2013-01-20 07:20:00,
2013-01-20 02:25:00,27.1,8.6,29.86,WNW,301,19.8,33.0,45,0.00,,,0.00,VWS V14.01,2013-01-20 07:25:00,
2013-01-20 02:31:00,27.1,8.1,29.86,West,281,15.8,26.3,44,0.00,,,0.00,VWS V14.01,2013-01-20 07:31:00,
2013-01-20 02:36:00,27.0,8.0,29.86,WSW,241,21.8,36.4,44,0.00,,,0.00,VWS V14.01,2013-01-20 07:36:00,
2013-01-20 02:42:00,27.0,8.5,29.89,WNW,297,13.1,26.3,45,0.00,,,0.00,VWS V14.01,2013-01-20 07:42:00,
2013-01-20 02:47:00,26.8,8.3,29.89,West,276,12.4,31.9,45,0.00,,,0.00,VWS V14.01,2013-01-20 07:47:00,
2013-01-20 02:52:00,26.6,8.6,29.89,WNW,283,16.4,27.4,46,0.00,,,0.00,VWS V14.01,2013-01-20 07:52:00,
2013-01-20 02:57:00,26.4,8.5,29.89,WNW,300,9.4,22.9,46,0.00,,,0.00,VWS V14.01,2013-01-20 07:57:00,
2013-01-20 03:02:00,26.4,8.5,29.89,WNW,299,16.4,27.4,46,0.00,,,0.00,VWS V14.01,2013-01-20 08:02:00,
2013-01-20 03:07:00,26.1,8.1,29.89,WNW,300,12.4,36.4,46,0.00,,,0.00,VWS V14.01,2013-01-20 08:07:00,
2013-01-20 03:13:00,25.7,7.8,29.92,WNW,298,13.1,30.8,46,0.00,,,0.00,VWS V14.01,2013-01-20 08:13:00,
2013-01-20 03:19:00,25.3,7.5,29.92,WNW,296,19.1,31.9,46,0.00,,,0.00,VWS V14.01,2013-01-20 08:19:00,
2013-01-20 03:25:00,25.2,7.3,29.95,WNW,296,11.4,27.4,46,0.00,,,0.00,VWS V14.01,2013-01-20 08:25:00,
2013-01-20 03:30:00,25.0,7.1,29.95,WNW,288,13.1,22.9,46,0.00,,,0.00,VWS V14.01,2013-01-20 08:30:00,
2013-01-20 03:36:00,24.6,7.3,29.95,West,275,13.1,27.4,47,0.00,,,0.00,VWS V14.01,2013-01-20 08:36:00,
2013-01-20 03:42:00,24.6,7.3,29.95,WNW,291,12.4,33.0,47,0.00,,,0.00,VWS V14.01,2013-01-20 08:42:00,
2013-01-20 03:48:00,24.1,6.3,29.95,NW,307,9.4,31.9,46,0.00,,,0.00,VWS V14.01,2013-01-20 08:48:00,
2013-01-20 03:54:00,23.7,6.4,29.98,WNW,300,8.1,21.8,47,0.00,,,0.00,VWS V14.01,2013-01-20 08:54:00,
2013-01-20 03:59:00,23.5,6.8,29.98,West,267,12.4,25.2,48,0.00,,,0.00,VWS V14.01,2013-01-20 08:59:00,
2013-01-20 04:05:00,23.4,7.0,29.98,NNW,327,12.1,26.3,49,0.00,,,0.00,VWS V14.01,2013-01-20 09:05:00,
2013-01-20 04:10:00,23.0,6.7,29.98,WNW,294,15.8,30.8,49,0.00,,,0.00,VWS V14.01,2013-01-20 09:10:00,
2013-01-20 04:16:00,22.8,6.5,29.98,NW,305,13.1,26.3,49,0.00,,,0.00,VWS V14.01,2013-01-20 09:16:00,
2013-01-20 04:21:00,22.6,6.8,29.98,WNW,292,13.1,25.2,50,0.00,,,0.00,VWS V14.01,2013-01-20 09:21:00,
2013-01-20 04:27:00,22.6,6.8,29.98,WNW,291,10.7,27.4,50,0.00,,,0.00,VWS V14.01,2013-01-20 09:27:00,
2013-01-20 04:33:00,21.9,6.1,29.98,NW,320,8.1,21.8,50,0.00,,,0.00,VWS V14.01,2013-01-20 09:33:00,
2013-01-20 04:38:00,21.9,6.6,29.98,NW,308,18.5,30.8,51,0.00,,,0.00,VWS V14.01,2013-01-20 09:38:00,
2013-01-20 04:43:00,21.9,6.6,29.98,NW,308,11.4,20.7,51,0.00,,,0.00,VWS V14.01,2013-01-20 09:43:00,
2013-01-20 04:48:00,21.6,7.1,29.98,WNW,296,8.1,20.1,53,0.00,,,0.00,VWS V14.01,2013-01-20 09:48:00,
2013-01-20 04:53:00,21.4,6.9,30.01,West,269,15.1,25.2,53,0.00,,,0.00,VWS V14.01,2013-01-20 09:53:00,
2013-01-20 04:59:00,21.2,7.2,30.01,WNW,291,15.8,26.3,54,0.00,,,0.00,VWS V14.01,2013-01-20 09:59:00,
2013-01-20 05:05:00,20.8,7.6,30.01,WNW,288,18.5,30.8,56,0.00,,,0.00,VWS V14.01,2013-01-20 10:05:00,
2013-01-20 05:11:00,20.7,7.8,30.01,WNW,286,14.4,26.3,57,0.00,,,0.00,VWS V14.01,2013-01-20 10:11:00,
2013-01-20 05:17:00,20.5,7.3,30.01,West,265,8.7,20.7,56,0.00,,,0.00,VWS V14.01,2013-01-20 10:17:00,
2013-01-20 05:22:00,20.3,7.1,30.01,WNW,295,8.1,19.0,56,0.00,,,0.00,VWS V14.01,2013-01-20 10:22:00,
2013-01-20 05:27:00,20.3,6.7,30.01,WNW,302,12.1,20.1,55,0.00,,,0.00,VWS V14.01,2013-01-20 10:27:00,
2013-01-20 05:32:00,20.3,6.3,30.01,SW,236,11.4,20.7,54,0.00,,,0.00,VWS V14.01,2013-01-20 10:32:00,
2013-01-20 05:38:00,20.1,6.6,30.04,WNW,291,12.4,20.7,55,0.00,,,0.00,VWS V14.01,2013-01-20 10:38:00,
2013-01-20 05:44:00,19.8,7.0,30.04,WNW,292,12.1,20.7,57,0.00,,,0.00,VWS V14.01,2013-01-20 10:44:00,
2013-01-20 05:50:00,19.6,6.8,30.04,West,281,8.7,20.1,57,0.00,,,0.00,VWS V14.01,2013-01-20 10:50:00,
2013-01-20 05:56:00,19.6,6.8,30.04,WNW,300,10.1,25.2,57,0.00,,,0.00,VWS V14.01,2013-01-20 10:56:00,
2013-01-20 06:01:00,19.4,6.3,30.04,WNW,289,6.0,25.2,56,0.00,,,0.00,VWS V14.01,2013-01-20 11:01:00,
2013-01-20 06:06:00,19.4,5.9,30.04,West,280,11.4,25.2,55,0.00,,,0.00,VWS V14.01,2013-01-20 11:06:00,
2013-01-20 06:11:00,19.2,5.3,30.04,West,279,15.1,30.8,54,0.00,,,0.00,VWS V14.01,2013-01-20 11:11:00,
2013-01-20 06:17:00,19.0,4.7,30.04,WNW,286,16.4,27.4,53,0.00,,,0.00,VWS V14.01,2013-01-20 11:17:00,
2013-01-20 06:22:00,19.2,4.9,30.04,NW,318,12.1,20.7,53,0.00,,,0.00,VWS V14.01,2013-01-20 11:22:00,
2013-01-20 06:27:00,19.0,4.7,30.07,NW,315,12.4,21.8,53,0.00,,,0.00,VWS V14.01,2013-01-20 11:27:00,
2013-01-20 06:33:00,19.0,5.1,30.07,WNW,289,15.1,27.4,54,0.00,,,0.00,VWS V14.01,2013-01-20 11:33:00,
2013-01-20 06:38:00,18.7,4.8,30.07,WNW,292,11.4,25.2,54,0.00,,,0.00,VWS V14.01,2013-01-20 11:38:00,
2013-01-20 06:44:00,18.7,5.2,30.07,WNW,298,9.4,21.8,55,0.00,,,0.00,VWS V14.01,2013-01-20 11:44:00,
2013-01-20 06:49:00,18.7,5.6,30.07,WNW,298,13.1,22.9,56,0.00,,,0.00,VWS V14.01,2013-01-20 11:49:00,
2013-01-20 06:54:00,18.5,5.4,30.07,NW,304,10.1,21.8,56,0.00,,,0.00,VWS V14.01,2013-01-20 11:54:00,
2013-01-20 07:00:00,18.5,5.8,30.07,SW,236,12.1,20.1,57,0.00,,,0.00,VWS V14.01,2013-01-20 12:00:00,
2013-01-20 07:05:00,18.5,5.8,30.07,West,279,8.7,19.0,57,0.00,,,0.00,VWS V14.01,2013-01-20 12:05:00,
2013-01-20 07:11:00,18.5,6.2,30.10,WNW,292,8.7,20.7,58,0.00,,,0.00,VWS V14.01,2013-01-20 12:11:00,
2013-01-20 07:17:00,18.3,6.0,30.10,West,278,8.7,15.7,58,0.00,,,0.00,VWS V14.01,2013-01-20 12:17:00,
2013-01-20 07:23:00,18.3,6.0,30.10,West,277,8.7,20.7,58,0.00,,,0.00,VWS V14.01,2013-01-20 12:23:00,
2013-01-20 07:29:00,18.1,6.2,30.10,NW,304,8.1,13.4,59,0.00,,,0.00,VWS V14.01,2013-01-20 12:29:00,
2013-01-20 07:34:00,18.1,6.2,30.10,West,277,8.1,14.5,59,0.00,,,0.00,VWS V14.01,2013-01-20 12:34:00,
2013-01-20 07:39:00,18.1,6.2,30.10,West,278,6.0,24.0,59,0.00,,,0.00,VWS V14.01,2013-01-20 12:39:00,
2013-01-20 07:45:00,18.0,6.1,30.13,West,280,12.1,20.7,59,0.00,,,0.00,VWS V14.01,2013-01-20 12:45:00,
2013-01-20 07:51:00,18.0,6.1,30.13,WNW,299,12.4,20.7,59,0.00,,,0.00,VWS V14.01,2013-01-20 12:51:00,
2013-01-20 07:56:00,17.8,6.3,30.13,WNW,296,8.1,15.7,60,0.00,,,0.00,VWS V14.01,2013-01-20 12:56:00,
2013-01-20 08:01:00,17.8,6.3,30.13,WNW,285,8.7,14.5,60,0.00,,,0.00,VWS V14.01,2013-01-20 13:01:00,
2013-01-20 08:07:00,17.6,6.1,30.13,NW,306,8.7,15.7,60,0.00,,,0.00,VWS V14.01,2013-01-20 13:07:00,
2013-01-20 08:12:00,17.8,6.3,30.13,NW,305,9.4,19.0,60,0.00,,,0.00,VWS V14.01,2013-01-20 13:12:00,
2013-01-20 08:18:00,17.8,6.6,30.13,West,267,7.4,13.4,61,0.00,,,0.00,VWS V14.01,2013-01-20 13:18:00,
2013-01-20 08:24:00,18.0,6.8,30.16,WNW,300,9.4,17.9,61,0.00,,,0.00,VWS V14.01,2013-01-20 13:24:00,
2013-01-20 08:29:00,18.0,6.8,30.16,WNW,302,5.4,19.0,61,0.00,,,0.00,VWS V14.01,2013-01-20 13:29:00,
2013-01-20 08:35:00,17.8,6.6,30.16,WNW,300,7.4,13.4,61,0.00,,,0.00,VWS V14.01,2013-01-20 13:35:00,
2013-01-20 08:40:00,17.8,6.6,30.16,NW,306,8.7,15.7,61,0.00,,,0.00,VWS V14.01,2013-01-20 13:40:00,
2013-01-20 08:47:00,17.8,6.6,30.16,NW,307,7.4,13.4,61,0.00,,,0.00,VWS V14.01,2013-01-20 13:47:00,
2013-01-20 08:53:00,18.1,7.3,30.16,WNW,293,9.4,15.7,62,0.00,,,0.00,VWS V14.01,2013-01-20 13:53:00,
2013-01-20 08:59:00,18.3,7.5,30.16,WNW,302,9.4,15.7,62,0.00,,,0.00,VWS V14.01,2013-01-20 13:59:00,
2013-01-20 09:04:00,18.3,7.5,30.16,WNW,284,6.0,15.7,62,0.00,,,0.00,VWS V14.01,2013-01-20 14:04:00,
2013-01-20 09:09:00,18.5,7.7,30.16,NW,305,7.4,14.5,62,0.00,,,0.00,VWS V14.01,2013-01-20 14:09:00,
2013-01-20 09:14:00,18.5,7.7,30.16,NW,305,6.0,11.2,62,0.00,,,0.00,VWS V14.01,2013-01-20 14:14:00,
2013-01-20 09:20:00,18.5,7.7,30.16,WNW,282,6.0,14.5,62,0.00,,,0.00,VWS V14.01,2013-01-20 14:20:00,
2013-01-20 09:25:00,18.5,7.7,30.19,West,270,6.0,14.5,62,0.00,,,0.00,VWS V14.01,2013-01-20 14:25:00,
2013-01-20 09:31:00,18.9,8.4,30.19,WNW,286,8.1,14.5,63,0.00,,,0.00,VWS V14.01,2013-01-20 14:31:00,
2013-01-20 09:36:00,18.9,8.4,30.19,West,269,3.4,12.3,63,0.00,,,0.00,VWS V14.01,2013-01-20 14:36:00,
2013-01-20 09:41:00,18.9,8.4,30.19,WNW,286,8.1,15.7,63,0.00,,,0.00,VWS V14.01,2013-01-20 14:41:00,
2013-01-20 09:46:00,19.4,8.9,30.19,WNW,289,5.4,13.4,63,0.00,,,0.00,VWS V14.01,2013-01-20 14:46:00,
2013-01-20 09:51:00,19.4,8.9,30.19,WNW,289,8.7,14.5,63,0.00,,,0.00,VWS V14.01,2013-01-20 14:51:00,
2013-01-20 09:57:00,19.4,8.9,30.19,West,274,0.0,10.1,63,0.00,,,0.00,VWS V14.01,2013-01-20 14:57:00,
2013-01-20 10:03:00,19.4,8.9,30.19,WNW,285,5.4,12.3,63,0.00,,,0.00,VWS V14.01,2013-01-20 15:03:00,
2013-01-20 10:09:00,19.4,8.9,30.22,West,265,0.0,0.0,63,0.00,,,0.00,VWS V14.01,2013-01-20 15:09:00,
2013-01-20 10:15:00,19.4,8.9,30.22,WSW,252,0.0,7.8,63,0.00,,,0.00,VWS V14.01,2013-01-20 15:15:00,
2013-01-20 10:21:00,19.4,8.9,30.22,West,259,4.0,6.7,63,0.00,,,0.00,VWS V14.01,2013-01-20 15:21:00,
2013-01-20 10:26:00,19.9,9.7,30.22,WSW,243,4.0,7.8,64,0.00,,,0.00,VWS V14.01,2013-01-20 15:26:00,
2013-01-20 10:31:00,19.9,9.7,30.22,West,279,3.4,14.5,64,0.00,,,0.00,VWS V14.01,2013-01-20 15:31:00,
2013-01-20 10:37:00,19.9,9.7,30.22,WNW,303,7.4,12.3,64,0.00,,,0.00,VWS V14.01,2013-01-20 15:37:00,
2013-01-20 10:43:00,19.9,9.7,30.22,WNW,285,3.4,10.1,64,0.00,,,0.00,VWS V14.01,2013-01-20 15:43:00,
2013-01-20 10:48:00,20.5,9.9,30.22,West,274,0.0,0.0,63,0.00,,,0.00,VWS V14.01,2013-01-20 15:48:00,
2013-01-20 10:54:00,20.5,9.9,30.22,West,268,4.7,12.3,63,0.00,,,0.00,VWS V14.01,2013-01-20 15:54:00,
2013-01-20 10:59:00,20.7,10.1,30.22,SW,230,5.4,10.1,63,0.00,,,0.00,VWS V14.01,2013-01-20 15:59:00,
2013-01-20 11:05:00,20.5,9.6,30.22,SW,236,6.0,12.3,62,0.00,,,0.00,VWS V14.01,2013-01-20 16:05:00,
2013-01-20 11:11:00,20.7,9.7,30.22,West,263,3.4,13.4,62,0.00,,,0.00,VWS V14.01,2013-01-20 16:11:00,
2013-01-20 11:16:00,20.8,9.9,30.22,WNW,293,5.4,10.1,62,0.00,,,0.00,VWS V14.01,2013-01-20 16:16:00,
2013-01-20 11:22:00,21.2,9.9,30.22,West,273,5.4,13.4,61,0.00,,,0.00,VWS V14.01,2013-01-20 16:22:00,
2013-01-20 11:28:00,21.2,9.9,30.22,West,278,4.7,7.8,61,0.00,,,0.00,VWS V14.01,2013-01-20 16:28:00,
2013-01-20 11:34:00,21.4,10.0,30.22,WNW,299,12.1,20.1,61,0.00,,,0.00,VWS V14.01,2013-01-20 16:34:00,
2013-01-20 11:39:00,21.4,9.7,30.22,West,279,8.1,13.4,60,0.00,,,0.00,VWS V14.01,2013-01-20 16:39:00,
2013-01-20 11:44:00,21.4,9.3,30.22,West,265,8.1,19.0,59,0.00,,,0.00,VWS V14.01,2013-01-20 16:44:00,
2013-01-20 11:50:00,21.9,9.8,30.22,West,269,3.4,19.0,59,0.00,,,0.00,VWS V14.01,2013-01-20 16:50:00,
2013-01-20 11:55:00,21.9,9.8,30.22,SW,227,3.4,8.9,59,0.00,,,0.00,VWS V14.01,2013-01-20 16:55:00,
2013-01-20 12:00:00,21.9,9.8,30.22,SW,225,4.7,8.9,59,0.00,,,0.00,VWS V14.01,2013-01-20 17:00:00,
2013-01-20 12:06:00,21.7,9.6,30.22,WNW,294,3.4,8.9,59,0.00,,,0.00,VWS V14.01,2013-01-20 17:06:00,
2013-01-20 12:12:00,21.7,9.6,30.22,WSW,238,3.4,14.5,59,0.00,,,0.00,VWS V14.01,2013-01-20 17:12:00,
2013-01-20 12:17:00,21.9,9.8,30.22,SW,232,4.0,8.9,59,0.00,,,0.00,VWS V14.01,2013-01-20 17:17:00,
2013-01-20 12:23:00,22.6,10.5,30.22,WNW,292,5.4,8.9,59,0.00,,,0.00,VWS V14.01,2013-01-20 17:23:00,
2013-01-20 12:29:00,22.8,10.6,30.22,WNW,294,4.0,6.7,59,0.00,,,0.00,VWS V14.01,2013-01-20 17:29:00,
2013-01-20 12:34:00,22.8,10.6,30.22,West,259,5.4,8.9,59,0.00,,,0.00,VWS V14.01,2013-01-20 17:34:00,
2013-01-20 12:40:00,22.6,10.1,30.19,West,268,11.4,19.0,58,0.00,,,0.00,VWS V14.01,2013-01-20 17:40:00,
2013-01-20 12:45:00,22.5,9.9,30.19,WNW,286,6.0,16.8,58,0.00,,,0.00,VWS V14.01,2013-01-20 17:45:00,
2013-01-20 12:50:00,22.5,9.9,30.19,West,281,4.0,8.9,58,0.00,,,0.00,VWS V14.01,2013-01-20 17:50:00,
2013-01-20 12:56:00,22.6,9.7,30.19,West,272,6.0,14.5,57,0.00,,,0.00,VWS V14.01,2013-01-20 17:56:00,
2013-01-20 13:02:00,22.3,9.0,30.19,WNW,282,4.7,14.5,56,0.00,,,0.00,VWS V14.01,2013-01-20 18:02:00,
2013-01-20 13:08:00,22.1,8.8,30.19,NW,304,5.4,13.4,56,0.00,,,0.00,VWS V14.01,2013-01-20 18:08:00,
2013-01-20 13:13:00,22.1,8.8,30.19,WNW,285,4.7,7.8,56,0.00,,,0.00,VWS V14.01,2013-01-20 18:13:00,
2013-01-20 13:19:00,22.1,8.8,30.19,WNW,283,6.0,10.1,56,0.00,,,0.00,VWS V14.01,2013-01-20 18:19:00,
2013-01-20 13:25:00,22.8,9.1,30.19,WNW,285,6.0,10.1,55,0.00,,,0.00,VWS V14.01,2013-01-20 18:25:00,
2013-01-20 13:31:00,22.8,8.7,30.19,West,265,0.0,14.5,54,0.00,,,0.00,VWS V14.01,2013-01-20 18:31:00,
2013-01-20 13:37:00,22.6,8.5,30.19,WSW,246,0.0,10.1,54,0.00,,,0.00,VWS V14.01,2013-01-20 18:37:00,
2013-01-20 13:43:00,22.5,8.3,30.19,WSW,243,4.0,7.8,54,0.00,,,0.00,VWS V14.01,2013-01-20 18:43:00,
2013-01-20 13:49:00,22.8,9.1,30.19,WNW,284,4.0,14.5,55,0.00,,,0.00,VWS V14.01,2013-01-20 18:49:00,
2013-01-20 13:54:00,23.2,9.4,30.19,West,275,4.0,10.1,55,0.00,,,0.00,VWS V14.01,2013-01-20 18:54:00,
2013-01-20 13:59:00,23.0,9.2,30.19,SW,230,6.0,16.8,55,0.00,,,0.00,VWS V14.01,2013-01-20 18:59:00,
2013-01-20 14:04:00,22.6,8.9,30.19,WNW,284,5.4,8.9,55,0.00,,,0.00,VWS V14.01,2013-01-20 19:04:00,
2013-01-20 14:09:00,22.6,8.9,30.19,West,277,4.0,15.7,55,0.00,,,0.00,VWS V14.01,2013-01-20 19:09:00,
2013-01-20 14:16:00,22.5,8.8,30.19,West,263,4.7,10.1,55,0.00,,,0.00,VWS V14.01,2013-01-20 19:16:00,
2013-01-20 14:21:00,22.6,8.9,30.19,NW,314,0.0,11.2,55,0.00,,,0.00,VWS V14.01,2013-01-20 19:21:00,
2013-01-20 14:26:00,22.6,8.9,30.19,West,272,6.0,10.1,55,0.00,,,0.00,VWS V14.01,2013-01-20 19:26:00,
2013-01-20 14:31:00,21.9,7.8,30.19,West,281,5.4,8.9,54,0.00,,,0.00,VWS V14.01,2013-01-20 19:31:00,
2013-01-20 14:37:00,21.9,7.8,30.19,WSW,238,0.0,13.4,54,0.00,,,0.00,VWS V14.01,2013-01-20 19:37:00,
2013-01-20 14:42:00,21.7,7.7,30.19,WNW,292,8.7,14.5,54,0.00,,,0.00,VWS V14.01,2013-01-20 19:42:00,
2013-01-20 14:47:00,21.7,8.1,30.19,WNW,291,7.4,12.3,55,0.00,,,0.00,VWS V14.01,2013-01-20 19:47:00,
2013-01-20 14:52:00,21.7,8.1,30.19,WNW,291,5.4,8.9,55,0.00,,,0.00,VWS V14.01,2013-01-20 19:52:00,
2013-01-20 14:57:00,21.7,8.1,30.22,West,275,3.4,5.6,55,0.00,,,0.00,VWS V14.01,2013-01-20 19:57:00,
2013-01-20 15:02:00,21.7,8.1,30.22,WNW,295,8.1,15.7,55,0.00,,,0.00,VWS V14.01,2013-01-20 20:02:00,
2013-01-20 15:08:00,21.6,7.9,30.22,West,272,4.7,13.4,55,0.00,,,0.00,VWS V14.01,2013-01-20 20:08:00,
2013-01-20 15:14:00,21.6,7.9,30.22,West,277,4.0,8.9,55,0.00,,,0.00,VWS V14.01,2013-01-20 20:14:00,
2013-01-20 15:19:00,21.4,7.7,30.22,WNW,285,5.4,10.1,55,0.00,,,0.00,VWS V14.01,2013-01-20 20:19:00,
2013-01-20 15:25:00,21.2,7.6,30.22,West,268,3.4,7.8,55,0.00,,,0.00,VWS V14.01,2013-01-20 20:25:00,
2013-01-20 15:31:00,21.2,7.6,30.22,WSW,250,4.0,6.7,55,0.00,,,0.00,VWS V14.01,2013-01-20 20:31:00,
2013-01-20 15:36:00,21.2,8.0,30.22,WNW,295,0.0,6.7,56,0.00,,,0.00,VWS V14.01,2013-01-20 20:36:00,
2013-01-20 15:41:00,20.8,7.6,30.19,WNW,295,4.0,10.1,56,0.00,,,0.00,VWS V14.01,2013-01-20 20:41:00,
2013-01-20 15:47:00,20.8,7.6,30.19,West,268,5.4,8.9,56,0.00,,,0.00,VWS V14.01,2013-01-20 20:47:00,
2013-01-20 15:53:00,20.8,7.2,30.19,West,271,4.7,7.8,55,0.00,,,0.00,VWS V14.01,2013-01-20 20:53:00,
2013-01-20 15:59:00,21.0,7.4,30.19,West,268,4.0,10.1,55,0.00,,,0.00,VWS V14.01,2013-01-20 20:59:00,
2013-01-20 16:04:00,20.8,7.2,30.19,WNW,291,4.7,11.2,55,0.00,,,0.00,VWS V14.01,2013-01-20 21:04:00,
2013-01-20 16:10:00,20.7,7.1,30.22,WSW,245,3.4,8.9,55,0.00,,,0.00,VWS V14.01,2013-01-20 21:10:00,
2013-01-20 16:15:00,20.5,6.5,30.22,West,268,3.4,12.3,54,0.00,,,0.00,VWS V14.01,2013-01-20 21:15:00,
2013-01-20 16:20:00,20.5,6.5,30.22,West,270,5.4,13.4,54,0.00,,,0.00,VWS V14.01,2013-01-20 21:20:00,
2013-01-20 16:26:00,20.3,6.7,30.19,WNW,289,0.0,10.1,55,0.00,,,0.00,VWS V14.01,2013-01-20 21:26:00,
2013-01-20 16:32:00,20.3,6.7,30.19,WNW,290,4.7,7.8,55,0.00,,,0.00,VWS V14.01,2013-01-20 21:32:00,
2013-01-20 16:37:00,20.5,7.3,30.19,WNW,297,6.0,13.4,56,0.00,,,0.00,VWS V14.01,2013-01-20 21:37:00,
2013-01-20 16:42:00,20.7,7.5,30.22,West,260,3.4,13.4,56,0.00,,,0.00,VWS V14.01,2013-01-20 21:42:00,
2013-01-20 16:47:00,20.5,7.3,30.22,WNW,283,0.0,6.7,56,0.00,,,0.00,VWS V14.01,2013-01-20 21:47:00,
2013-01-20 16:53:00,20.5,7.3,30.22,WNW,283,3.4,5.6,56,0.00,,,0.00,VWS V14.01,2013-01-20 21:53:00,
2013-01-20 16:59:00,20.3,7.1,30.22,WNW,285,0.0,8.9,56,0.00,,,0.00,VWS V14.01,2013-01-20 21:59:00,
2013-01-20 17:04:00,20.1,6.9,30.22,West,276,0.0,6.7,56,0.00,,,0.00,VWS V14.01,2013-01-20 22:04:00,
2013-01-20 17:10:00,19.9,6.4,30.22,WSW,250,0.0,5.6,55,0.00,,,0.00,VWS V14.01,2013-01-20 22:10:00,
2013-01-20 17:16:00,19.8,6.2,30.22,WNW,284,4.7,7.8,55,0.00,,,0.00,VWS V14.01,2013-01-20 22:16:00,
2013-01-20 17:22:00,19.4,5.9,30.22,WNW,293,5.4,14.5,55,0.00,,,0.00,VWS V14.01,2013-01-20 22:22:00,
2013-01-20 17:28:00,19.2,5.7,30.22,WSW,254,4.0,10.1,55,0.00,,,0.00,VWS V14.01,2013-01-20 22:28:00,
2013-01-20 17:34:00,19.2,5.7,30.22,West,281,6.0,10.1,55,0.00,,,0.00,VWS V14.01,2013-01-20 22:34:00,
2013-01-20 17:39:00,19.2,5.7,30.22,West,280,6.0,12.3,55,0.00,,,0.00,VWS V14.01,2013-01-20 22:39:00,
2013-01-20 17:44:00,19.2,5.7,30.22,WNW,288,5.4,8.9,55,0.00,,,0.00,VWS V14.01,2013-01-20 22:44:00,
2013-01-20 17:49:00,19.2,5.7,30.22,WNW,297,5.4,10.1,55,0.00,,,0.00,VWS V14.01,2013-01-20 22:49:00,
2013-01-20 17:54:00,19.2,5.7,30.22,WNW,290,4.0,7.8,55,0.00,,,0.00,VWS V14.01,2013-01-20 22:54:00,
2013-01-20 18:00:00,19.0,5.5,30.22,West,275,5.4,8.9,55,0.00,,,0.00,VWS V14.01,2013-01-20 23:00:00,
2013-01-20 18:05:00,19.0,5.9,30.22,WNW,285,0.0,10.1,56,0.00,,,0.00,VWS V14.01,2013-01-20 23:05:00,
2013-01-20 18:11:00,19.0,5.9,30.22,WSW,254,0.0,0.0,56,0.00,,,0.00,VWS V14.01,2013-01-20 23:11:00,
2013-01-20 18:17:00,19.0,5.9,30.22,West,276,3.4,6.7,56,0.00,,,0.00,VWS V14.01,2013-01-20 23:17:00,
2013-01-20 18:23:00,18.9,5.8,30.22,WNW,298,0.0,7.8,56,0.00,,,0.00,VWS V14.01,2013-01-20 23:23:00,
2013-01-20 18:28:00,18.9,5.8,30.22,WNW,290,0.0,10.1,56,0.00,,,0.00,VWS V14.01,2013-01-20 23:28:00,
2013-01-20 18:33:00,18.5,5.4,30.22,WSW,241,4.0,6.7,56,0.00,,,0.00,VWS V14.01,2013-01-20 23:33:00,
2013-01-20 18:39:00,17.8,4.8,30.22,West,272,0.0,7.8,56,0.00,,,0.00,VWS V14.01,2013-01-20 23:39:00,
2013-01-20 18:45:00,18.1,5.1,30.22,West,264,0.0,0.0,56,0.00,,,0.00,VWS V14.01,2013-01-20 23:45:00,
2013-01-20 18:50:00,18.1,5.1,30.22,West,264,0.0,7.8,56,0.00,,,0.00,VWS V14.01,2013-01-20 23:50:00,
2013-01-20 18:56:00,18.3,5.3,30.22,West,260,3.4,7.8,56,0.00,,,0.00,VWS V14.01,2013-01-20 23:56:00,
2013-01-20 19:02:00,18.3,5.3,30.22,West,265,0.0,0.0,56,0.00,,,0.00,VWS V14.01,2013-01-21 00:02:00,
2013-01-20 19:08:00,18.3,5.3,30.22,WSW,258,6.0,10.1,56,0.00,,,0.00,VWS V14.01,2013-01-21 00:08:00,
2013-01-20 19:13:00,18.3,5.7,30.22,WSW,256,0.0,7.8,57,0.00,,,0.00,VWS V14.01,2013-01-21 00:13:00,
2013-01-20 19:19:00,18.1,5.1,30.22,WSW,256,0.0,0.0,56,0.00,,,0.00,VWS V14.01,2013-01-21 00:19:00,
2013-01-20 19:24:00,18.3,5.7,30.22,WSW,250,0.0,0.0,57,0.00,,,0.00,VWS V14.01,2013-01-21 00:24:00,
2013-01-20 19:29:00,18.1,5.5,30.22,WSW,250,0.0,5.6,57,0.00,,,0.00,VWS V14.01,2013-01-21 00:29:00,
2013-01-20 19:34:00,17.8,4.8,30.22,WSW,256,0.0,0.0,56,0.00,,,0.00,VWS V14.01,2013-01-21 00:34:00,
2013-01-20 19:40:00,17.6,5.0,30.22,WSW,251,0.0,0.0,57,0.00,,,0.00,VWS V14.01,2013-01-21 00:40:00,
2013-01-20 19:46:00,17.4,4.8,30.22,WSW,252,3.4,5.6,57,0.00,,,0.00,VWS V14.01,2013-01-21 00:46:00,
2013-01-20 19:52:00,17.1,4.5,30.22,West,262,0.0,0.0,57,0.00,,,0.00,VWS V14.01,2013-01-21 00:52:00,
2013-01-20 19:57:00,17.1,4.5,30.22,WSW,256,0.0,0.0,57,0.00,,,0.00,VWS V14.01,2013-01-21 00:57:00,
2013-01-20 20:02:00,17.4,4.8,30.22,West,265,0.0,0.0,57,0.00,,,0.00,VWS V14.01,2013-01-21 01:02:00,
2013-01-20 20:07:00,17.8,5.1,30.22,WSW,243,0.0,0.0,57,0.00,,,0.00,VWS V14.01,2013-01-21 01:07:00,
2013-01-20 20:12:00,17.8,5.1,30.22,WSW,252,3.4,6.7,57,0.00,,,0.00,VWS V14.01,2013-01-21 01:12:00,
2013-01-20 20:17:00,17.6,5.0,30.22,West,259,0.0,11.2,57,0.00,,,0.00,VWS V14.01,2013-01-21 01:17:00,
2013-01-20 20:23:00,17.1,4.5,30.19,WNW,295,0.0,0.0,57,0.00,,,0.00,VWS V14.01,2013-01-21 01:23:00,
2013-01-20 20:29:00,16.9,4.3,30.19,West,280,0.0,0.0,57,0.00,,,0.00,VWS V14.01,2013-01-21 01:29:00,
2013-01-20 20:34:00,16.9,4.3,30.19,West,280,0.0,0.0,57,0.00,,,0.00,VWS V14.01,2013-01-21 01:34:00,
2013-01-20 20:40:00,17.1,4.5,30.19,West,280,0.0,0.0,57,0.00,,,0.00,VWS V14.01,2013-01-21 01:40:00,
2013-01-20 20:46:00,16.9,4.3,30.19,West,280,0.0,0.0,57,0.00,,,0.00,VWS V14.01,2013-01-21 01:46:00,
2013-01-20 20:51:00,17.1,4.5,30.19,West,274,0.0,0.0,57,0.00,,,0.00,VWS V14.01,2013-01-21 01:51:00,
2013-01-20 20:56:00,17.4,5.2,30.19,West,274,0.0,0.0,58,0.00,,,0.00,VWS V14.01,2013-01-21 01:56:00,
2013-01-20 21:01:00,17.4,5.2,30.19,WSW,247,0.0,0.0,58,0.00,,,0.00,VWS V14.01,2013-01-21 02:01:00,
2013-01-20 21:07:00,17.4,5.2,30.19,WSW,242,0.0,0.0,58,0.00,,,0.00,VWS V14.01,2013-01-21 02:07:00,
2013-01-20 21:12:00,17.4,5.2,30.19,WSW,242,0.0,0.0,58,0.00,,,0.00,VWS V14.01,2013-01-21 02:12:00,
2013-01-20 21:18:00,17.2,5.0,30.19,WSW,243,0.0,0.0,58,0.00,,,0.00,VWS V14.01,2013-01-21 02:18:00,
2013-01-20 21:23:00,17.4,5.2,30.19,WSW,243,0.0,0.0,58,0.00,,,0.00,VWS V14.01,2013-01-21 02:23:00,
2013-01-20 21:29:00,17.6,5.3,30.19,WSW,243,0.0,0.0,58,0.00,,,0.00,VWS V14.01,2013-01-21 02:29:00,
2013-01-20 21:34:00,17.6,5.3,30.19,SW,222,0.0,0.0,58,0.00,,,0.00,VWS V14.01,2013-01-21 02:34:00,
2013-01-20 21:40:00,17.6,5.3,30.19,SSW,212,0.0,0.0,58,0.00,,,0.00,VWS V14.01,2013-01-21 02:40:00,
2013-01-20 21:46:00,17.6,5.3,30.19,SSW,212,0.0,0.0,58,0.00,,,0.00,VWS V14.01,2013-01-21 02:46:00,
2013-01-20 21:52:00,17.4,5.2,30.19,SSW,212,0.0,0.0,58,0.00,,,0.00,VWS V14.01,2013-01-21 02:52:00,
2013-01-20 21:58:00,17.4,5.2,30.19,SSW,212,0.0,0.0,58,0.00,,,0.00,VWS V14.01,2013-01-21 02:58:00,
2013-01-20 22:04:00,17.2,5.0,30.19,SSW,212,0.0,0.0,58,0.00,,,0.00,VWS V14.01,2013-01-21 03:04:00,
2013-01-20 22:09:00,17.1,4.8,30.19,SSW,212,0.0,0.0,58,0.00,,,0.00,VWS V14.01,2013-01-21 03:09:00,
2013-01-20 22:14:00,17.2,5.0,30.19,SSW,212,0.0,0.0,58,0.00,,,0.00,VWS V14.01,2013-01-21 03:14:00,
2013-01-20 22:19:00,17.4,5.2,30.19,SSW,212,0.0,0.0,58,0.00,,,0.00,VWS V14.01,2013-01-21 03:19:00,
2013-01-20 22:27:00,17.6,5.3,30.16,SSW,212,0.0,0.0,58,0.00,,,0.00,VWS V14.01,2013-01-21 03:27:00,
2013-01-20 22:32:00,17.8,5.5,30.16,SSW,212,0.0,0.0,58,0.00,,,0.00,VWS V14.01,2013-01-21 03:32:00,
2013-01-20 22:38:00,18.0,5.7,30.16,SSW,212,0.0,0.0,58,0.00,,,0.00,VWS V14.01,2013-01-21 03:38:00,
2013-01-20 22:43:00,18.1,5.9,30.16,SW,227,4.0,7.8,58,0.00,,,0.00,VWS V14.01,2013-01-21 03:43:00,
2013-01-20 22:49:00,18.3,6.4,30.16,SW,236,3.4,6.7,59,0.00,,,0.00,VWS V14.01,2013-01-21 03:49:00,
2013-01-20 22:54:00,18.3,6.4,30.16,WSW,241,4.0,6.7,59,0.00,,,0.00,VWS V14.01,2013-01-21 03:54:00,
2013-01-20 23:01:00,18.3,6.4,30.16,WSW,240,4.0,6.7,59,0.00,,,0.00,VWS V14.01,2013-01-21 04:01:00,
2013-01-20 23:07:00,18.3,6.4,30.16,WSW,240,0.0,0.0,59,0.00,,,0.00,VWS V14.01,2013-01-21 04:07:00,
2013-01-20 23:13:00,18.3,6.4,30.16,WSW,240,0.0,0.0,59,0.00,,,0.00,VWS V14.01,2013-01-21 04:13:00,
2013-01-20 23:19:00,18.3,6.4,30.16,WSW,240,0.0,0.0,59,0.00,,,0.00,VWS V14.01,2013-01-21 04:19:00,
2013-01-20 23:24:00,18.1,6.2,30.16,WSW,240,0.0,0.0,59,0.00,,,0.00,VWS V14.01,2013-01-21 04:24:00,
2013-01-20 23:29:00,18.0,6.1,30.16,WSW,240,0.0,0.0,59,0.00,,,0.00,VWS V14.01,2013-01-21 04:29:00,
2013-01-20 23:35:00,17.8,5.9,30.16,WSW,240,0.0,0.0,59,0.00,,,0.00,VWS V14.01,2013-01-21 04:35:00,
2013-01-20 23:40:00,17.6,5.7,30.16,WSW,240,0.0,0.0,59,0.00,,,0.00,VWS V14.01,2013-01-21 04:40:00,
2013-01-20 23:46:00,17.1,5.2,30.16,WSW,240,0.0,0.0,59,0.00,,,0.00,VWS V14.01,2013-01-21 04:46:00,
2013-01-20 23:51:00,17.1,5.2,30.16,WSW,240,0.0,0.0,59,0.00,,,0.00,VWS V14.01,2013-01-21 04:51:00,
2013-01-20 23:58:00,16.9,5.0,30.16,WSW,240,0.0,0.0,59,0.00,,,0.00,VWS V14.01,2013-01-21 04:58:00,